sensor_id;sensor_type;location;lat;lon;timestamp;P1;durP1;ratioP1;P2;durP2;ratioP2
2772;SDS011;1394;47.044;15.744;2024-01-06T00:02:05;29.30;;;5.73;;
2772;SDS011;1394;47.044;15.744;2024-01-06T00:04:32;27.57;;;5.83;;
2772;SDS011;1394;47.044;15.744;2024-01-06T00:07:01;29.00;;;7.33;;
2772;SDS011;1394;47.044;15.744;2024-01-06T00:09:28;31.40;;;8.07;;
2772;SDS011;1394;47.044;15.744;2024-01-06T00:11:55;29.63;;;8.83;;
2772;SDS011;1394;47.044;15.744;2024-01-06T00:14:22;32.27;;;9.60;;
2772;SDS011;1394;47.044;15.744;2024-01-06T00:16:54;30.37;;;8.30;;
2772;SDS011;1394;47.044;15.744;2024-01-06T00:19:22;29.40;;;7.23;;
2772;SDS011;1394;47.044;15.744;2024-01-06T00:21:52;28.30;;;7.10;;
2772;SDS011;1394;47.044;15.744;2024-01-06T00:24:19;27.87;;;6.27;;
2772;SDS011;1394;47.044;15.744;2024-01-06T00:26:46;27.90;;;6.27;;
2772;SDS011;1394;47.044;15.744;2024-01-06T00:29:15;26.13;;;4.30;;
2772;SDS011;1394;47.044;15.744;2024-01-06T00:31:42;25.27;;;3.87;;
2772;SDS011;1394;47.044;15.744;2024-01-06T00:34:11;26.50;;;3.70;;
2772;SDS011;1394;47.044;15.744;2024-01-06T00:36:38;25.73;;;4.00;;
2772;SDS011;1394;47.044;15.744;2024-01-06T00:39:05;25.60;;;3.77;;
2772;SDS011;1394;47.044;15.744;2024-01-06T00:41:33;26.67;;;3.40;;
2772;SDS011;1394;47.044;15.744;2024-01-06T00:44:00;25.33;;;3.30;;
2772;SDS011;1394;47.044;15.744;2024-01-06T00:46:27;25.70;;;3.97;;
2772;SDS011;1394;47.044;15.744;2024-01-06T00:48:55;25.40;;;3.40;;
2772;SDS011;1394;47.044;15.744;2024-01-06T00:51:23;28.40;;;4.50;;
2772;SDS011;1394;47.044;15.744;2024-01-06T00:53:52;24.93;;;3.40;;
2772;SDS011;1394;47.044;15.744;2024-01-06T00:56:19;26.20;;;3.67;;
2772;SDS011;1394;47.044;15.744;2024-01-06T00:58:47;25.40;;;3.63;;
2772;SDS011;1394;47.044;15.744;2024-01-06T01:01:14;25.27;;;3.73;;
2772;SDS011;1394;47.044;15.744;2024-01-06T01:03:42;27.00;;;4.20;;
2772;SDS011;1394;47.044;15.744;2024-01-06T01:06:12;26.07;;;4.50;;
2772;SDS011;1394;47.044;15.744;2024-01-06T01:08:40;27.93;;;4.63;;
2772;SDS011;1394;47.044;15.744;2024-01-06T01:11:07;27.23;;;5.70;;
2772;SDS011;1394;47.044;15.744;2024-01-06T01:13:35;26.00;;;4.60;;
2772;SDS011;1394;47.044;15.744;2024-01-06T01:16:02;25.87;;;3.93;;
2772;SDS011;1394;47.044;15.744;2024-01-06T01:18:32;28.30;;;4.50;;
2772;SDS011;1394;47.044;15.744;2024-01-06T01:20:59;25.90;;;3.63;;
2772;SDS011;1394;47.044;15.744;2024-01-06T01:23:28;26.57;;;3.50;;
2772;SDS011;1394;47.044;15.744;2024-01-06T01:25:58;25.23;;;3.23;;
2772;SDS011;1394;47.044;15.744;2024-01-06T01:28:25;25.87;;;3.50;;
2772;SDS011;1394;47.044;15.744;2024-01-06T01:30:53;25.00;;;3.30;;
2772;SDS011;1394;47.044;15.744;2024-01-06T01:33:21;25.17;;;3.20;;
2772;SDS011;1394;47.044;15.744;2024-01-06T01:35:49;24.47;;;2.80;;
2772;SDS011;1394;47.044;15.744;2024-01-06T01:38:16;25.13;;;2.67;;
2772;SDS011;1394;47.044;15.744;2024-01-06T01:40:43;26.33;;;4.20;;
2772;SDS011;1394;47.044;15.744;2024-01-06T01:43:17;25.07;;;3.33;;
2772;SDS011;1394;47.044;15.744;2024-01-06T01:45:45;27.23;;;5.60;;
2772;SDS011;1394;47.044;15.744;2024-01-06T01:48:12;26.20;;;4.23;;
2772;SDS011;1394;47.044;15.744;2024-01-06T01:50:39;32.27;;;7.50;;
2772;SDS011;1394;47.044;15.744;2024-01-06T01:53:07;30.73;;;7.60;;
2772;SDS011;1394;47.044;15.744;2024-01-06T01:55:34;31.17;;;7.70;;
2772;SDS011;1394;47.044;15.744;2024-01-06T01:58:01;30.80;;;7.40;;
2772;SDS011;1394;47.044;15.744;2024-01-06T02:00:30;29.73;;;6.77;;
2772;SDS011;1394;47.044;15.744;2024-01-06T02:02:57;31.17;;;7.57;;
2772;SDS011;1394;47.044;15.744;2024-01-06T02:05:25;26.10;;;4.37;;
2772;SDS011;1394;47.044;15.744;2024-01-06T02:07:53;28.87;;;5.00;;
2772;SDS011;1394;47.044;15.744;2024-01-06T02:10:23;28.70;;;6.43;;
2772;SDS011;1394;47.044;15.744;2024-01-06T02:12:50;28.90;;;6.10;;
2772;SDS011;1394;47.044;15.744;2024-01-06T02:15:18;47.97;;;18.47;;
2772;SDS011;1394;47.044;15.744;2024-01-06T02:17:47;35.00;;;7.97;;
2772;SDS011;1394;47.044;15.744;2024-01-06T02:20:14;31.00;;;6.30;;
2772;SDS011;1394;47.044;15.744;2024-01-06T02:22:46;29.90;;;7.20;;
2772;SDS011;1394;47.044;15.744;2024-01-06T02:25:13;30.30;;;6.77;;
2772;SDS011;1394;47.044;15.744;2024-01-06T02:27:43;30.10;;;7.27;;
2772;SDS011;1394;47.044;15.744;2024-01-06T02:30:10;35.40;;;8.53;;
2772;SDS011;1394;47.044;15.744;2024-01-06T02:32:37;28.07;;;4.70;;
2772;SDS011;1394;47.044;15.744;2024-01-06T02:35:05;25.50;;;3.80;;
2772;SDS011;1394;47.044;15.744;2024-01-06T02:37:31;27.03;;;5.00;;
2772;SDS011;1394;47.044;15.744;2024-01-06T02:39:59;30.07;;;6.63;;
2772;SDS011;1394;47.044;15.744;2024-01-06T02:42:27;26.27;;;4.33;;
2772;SDS011;1394;47.044;15.744;2024-01-06T02:44:54;30.93;;;6.50;;
2772;SDS011;1394;47.044;15.744;2024-01-06T02:47:23;27.90;;;5.50;;
2772;SDS011;1394;47.044;15.744;2024-01-06T02:49:51;28.60;;;5.93;;
2772;SDS011;1394;47.044;15.744;2024-01-06T02:52:18;30.10;;;5.80;;
2772;SDS011;1394;47.044;15.744;2024-01-06T02:54:45;27.70;;;5.10;;
2772;SDS011;1394;47.044;15.744;2024-01-06T02:57:14;27.97;;;5.60;;
2772;SDS011;1394;47.044;15.744;2024-01-06T02:59:42;28.57;;;5.80;;
2772;SDS011;1394;47.044;15.744;2024-01-06T03:02:11;28.10;;;5.70;;
2772;SDS011;1394;47.044;15.744;2024-01-06T03:04:38;26.37;;;4.53;;
2772;SDS011;1394;47.044;15.744;2024-01-06T03:07:05;26.20;;;4.20;;
2772;SDS011;1394;47.044;15.744;2024-01-06T03:09:32;26.47;;;3.93;;
2772;SDS011;1394;47.044;15.744;2024-01-06T03:12:00;26.57;;;4.10;;
2772;SDS011;1394;47.044;15.744;2024-01-06T03:14:28;25.60;;;4.03;;
2772;SDS011;1394;47.044;15.744;2024-01-06T03:16:56;27.40;;;4.03;;
2772;SDS011;1394;47.044;15.744;2024-01-06T03:19:24;24.50;;;3.20;;
2772;SDS011;1394;47.044;15.744;2024-01-06T03:21:52;25.07;;;3.20;;
2772;SDS011;1394;47.044;15.744;2024-01-06T03:24:21;25.57;;;3.40;;
2772;SDS011;1394;47.044;15.744;2024-01-06T03:26:48;24.93;;;3.30;;
2772;SDS011;1394;47.044;15.744;2024-01-06T03:29:15;25.27;;;3.23;;
2772;SDS011;1394;47.044;15.744;2024-01-06T03:31:44;25.30;;;3.37;;
2772;SDS011;1394;47.044;15.744;2024-01-06T03:34:14;25.20;;;2.97;;
2772;SDS011;1394;47.044;15.744;2024-01-06T03:36:41;25.17;;;3.37;;
2772;SDS011;1394;47.044;15.744;2024-01-06T03:39:08;25.03;;;3.20;;
2772;SDS011;1394;47.044;15.744;2024-01-06T03:41:37;25.40;;;2.93;;
2772;SDS011;1394;47.044;15.744;2024-01-06T03:44:04;24.50;;;2.93;;
2772;SDS011;1394;47.044;15.744;2024-01-06T03:46:34;25.67;;;3.20;;
2772;SDS011;1394;47.044;15.744;2024-01-06T03:49:05;24.60;;;2.97;;
2772;SDS011;1394;47.044;15.744;2024-01-06T03:51:32;25.37;;;3.27;;
2772;SDS011;1394;47.044;15.744;2024-01-06T03:53:59;24.63;;;3.07;;
2772;SDS011;1394;47.044;15.744;2024-01-06T03:56:27;25.03;;;3.43;;
2772;SDS011;1394;47.044;15.744;2024-01-06T03:58:54;24.90;;;3.47;;
2772;SDS011;1394;47.044;15.744;2024-01-06T04:01:21;25.50;;;3.30;;
2772;SDS011;1394;47.044;15.744;2024-01-06T04:03:48;25.50;;;3.30;;
2772;SDS011;1394;47.044;15.744;2024-01-06T04:06:17;25.37;;;3.57;;
2772;SDS011;1394;47.044;15.744;2024-01-06T04:08:44;25.10;;;2.70;;
2772;SDS011;1394;47.044;15.744;2024-01-06T04:11:12;25.27;;;3.27;;
2772;SDS011;1394;47.044;15.744;2024-01-06T04:13:39;24.87;;;2.90;;
2772;SDS011;1394;47.044;15.744;2024-01-06T04:16:06;24.70;;;3.00;;
2772;SDS011;1394;47.044;15.744;2024-01-06T04:18:34;24.77;;;2.90;;
2772;SDS011;1394;47.044;15.744;2024-01-06T04:21:01;23.87;;;2.50;;
2772;SDS011;1394;47.044;15.744;2024-01-06T04:23:30;25.10;;;2.83;;
2772;SDS011;1394;47.044;15.744;2024-01-06T04:25:57;24.37;;;2.50;;
2772;SDS011;1394;47.044;15.744;2024-01-06T04:28:24;24.80;;;2.53;;
2772;SDS011;1394;47.044;15.744;2024-01-06T04:30:52;24.27;;;2.67;;
2772;SDS011;1394;47.044;15.744;2024-01-06T04:33:20;27.10;;;2.60;;
2772;SDS011;1394;47.044;15.744;2024-01-06T04:35:47;24.17;;;2.70;;
2772;SDS011;1394;47.044;15.744;2024-01-06T04:38:15;24.20;;;2.63;;
2772;SDS011;1394;47.044;15.744;2024-01-06T04:40:46;24.93;;;2.87;;
2772;SDS011;1394;47.044;15.744;2024-01-06T04:43:13;25.00;;;2.50;;
2772;SDS011;1394;47.044;15.744;2024-01-06T04:45:40;24.37;;;2.60;;
2772;SDS011;1394;47.044;15.744;2024-01-06T04:48:07;24.90;;;2.57;;
2772;SDS011;1394;47.044;15.744;2024-01-06T04:50:35;24.43;;;2.50;;
2772;SDS011;1394;47.044;15.744;2024-01-06T04:53:02;24.33;;;2.57;;
2772;SDS011;1394;47.044;15.744;2024-01-06T04:55:30;24.50;;;2.50;;
2772;SDS011;1394;47.044;15.744;2024-01-06T04:57:58;25.20;;;2.60;;
2772;SDS011;1394;47.044;15.744;2024-01-06T05:00:26;25.97;;;2.80;;
2772;SDS011;1394;47.044;15.744;2024-01-06T05:02:53;25.20;;;2.50;;
2772;SDS011;1394;47.044;15.744;2024-01-06T05:05:20;24.47;;;2.90;;
2772;SDS011;1394;47.044;15.744;2024-01-06T05:07:49;24.27;;;2.47;;
2772;SDS011;1394;47.044;15.744;2024-01-06T05:10:16;24.20;;;2.53;;
2772;SDS011;1394;47.044;15.744;2024-01-06T05:12:46;24.33;;;2.50;;
2772;SDS011;1394;47.044;15.744;2024-01-06T05:15:17;23.80;;;2.23;;
2772;SDS011;1394;47.044;15.744;2024-01-06T05:17:45;24.13;;;2.30;;
2772;SDS011;1394;47.044;15.744;2024-01-06T05:20:12;23.73;;;2.07;;
2772;SDS011;1394;47.044;15.744;2024-01-06T05:22:40;24.00;;;2.27;;
2772;SDS011;1394;47.044;15.744;2024-01-06T05:25:07;23.70;;;2.10;;
2772;SDS011;1394;47.044;15.744;2024-01-06T05:27:35;24.23;;;2.47;;
2772;SDS011;1394;47.044;15.744;2024-01-06T05:30:05;23.80;;;2.30;;
2772;SDS011;1394;47.044;15.744;2024-01-06T05:32:40;26.40;;;1.97;;
2772;SDS011;1394;47.044;15.744;2024-01-06T05:35:07;24.47;;;2.40;;
2772;SDS011;1394;47.044;15.744;2024-01-06T05:37:34;24.10;;;2.50;;
2772;SDS011;1394;47.044;15.744;2024-01-06T05:40:01;24.77;;;2.33;;
2772;SDS011;1394;47.044;15.744;2024-01-06T05:42:30;25.10;;;2.50;;
2772;SDS011;1394;47.044;15.744;2024-01-06T05:44:58;23.77;;;2.03;;
2772;SDS011;1394;47.044;15.744;2024-01-06T05:47:25;24.50;;;2.23;;
2772;SDS011;1394;47.044;15.744;2024-01-06T05:49:56;23.40;;;1.87;;
2772;SDS011;1394;47.044;15.744;2024-01-06T05:52:25;24.20;;;1.97;;
2772;SDS011;1394;47.044;15.744;2024-01-06T05:54:52;23.80;;;1.80;;
2772;SDS011;1394;47.044;15.744;2024-01-06T05:57:19;23.77;;;2.23;;
2772;SDS011;1394;47.044;15.744;2024-01-06T05:59:49;24.40;;;2.23;;
2772;SDS011;1394;47.044;15.744;2024-01-06T06:02:16;24.10;;;2.40;;
2772;SDS011;1394;47.044;15.744;2024-01-06T06:04:45;25.80;;;2.60;;
2772;SDS011;1394;47.044;15.744;2024-01-06T06:07:16;24.10;;;2.33;;
2772;SDS011;1394;47.044;15.744;2024-01-06T06:09:45;24.70;;;2.50;;
2772;SDS011;1394;47.044;15.744;2024-01-06T06:12:13;23.93;;;2.30;;
2772;SDS011;1394;47.044;15.744;2024-01-06T06:14:41;25.60;;;2.60;;
2772;SDS011;1394;47.044;15.744;2024-01-06T06:17:09;24.40;;;2.63;;
2772;SDS011;1394;47.044;15.744;2024-01-06T06:19:36;24.90;;;2.80;;
2772;SDS011;1394;47.044;15.744;2024-01-06T06:22:04;25.17;;;2.70;;
2772;SDS011;1394;47.044;15.744;2024-01-06T06:24:35;24.60;;;3.13;;
2772;SDS011;1394;47.044;15.744;2024-01-06T06:27:02;24.23;;;2.80;;
2772;SDS011;1394;47.044;15.744;2024-01-06T06:29:29;24.40;;;2.80;;
2772;SDS011;1394;47.044;15.744;2024-01-06T06:31:56;24.10;;;2.37;;
2772;SDS011;1394;47.044;15.744;2024-01-06T06:34:31;24.40;;;2.90;;
2772;SDS011;1394;47.044;15.744;2024-01-06T06:36:58;26.10;;;3.40;;
2772;SDS011;1394;47.044;15.744;2024-01-06T06:39:25;24.37;;;2.90;;
2772;SDS011;1394;47.044;15.744;2024-01-06T06:41:55;25.50;;;3.50;;
2772;SDS011;1394;47.044;15.744;2024-01-06T06:44:22;25.70;;;3.77;;
2772;SDS011;1394;47.044;15.744;2024-01-06T06:46:49;24.90;;;2.93;;
2772;SDS011;1394;47.044;15.744;2024-01-06T06:49:17;24.80;;;2.70;;
2772;SDS011;1394;47.044;15.744;2024-01-06T06:51:45;24.53;;;2.63;;
2772;SDS011;1394;47.044;15.744;2024-01-06T06:54:13;24.57;;;2.50;;
2772;SDS011;1394;47.044;15.744;2024-01-06T06:56:41;25.17;;;2.50;;
2772;SDS011;1394;47.044;15.744;2024-01-06T06:59:09;24.60;;;2.50;;
2772;SDS011;1394;47.044;15.744;2024-01-06T07:01:37;24.07;;;2.23;;
2772;SDS011;1394;47.044;15.744;2024-01-06T07:04:07;23.73;;;2.40;;
2772;SDS011;1394;47.044;15.744;2024-01-06T07:06:38;26.40;;;2.87;;
2772;SDS011;1394;47.044;15.744;2024-01-06T07:09:05;24.77;;;2.60;;
2772;SDS011;1394;47.044;15.744;2024-01-06T07:11:32;24.30;;;2.93;;
2772;SDS011;1394;47.044;15.744;2024-01-06T07:13:59;25.73;;;2.87;;
2772;SDS011;1394;47.044;15.744;2024-01-06T07:16:28;24.30;;;2.80;;
2772;SDS011;1394;47.044;15.744;2024-01-06T07:18:59;24.00;;;2.50;;
2772;SDS011;1394;47.044;15.744;2024-01-06T07:21:27;24.47;;;2.80;;
2772;SDS011;1394;47.044;15.744;2024-01-06T07:23:56;25.20;;;3.00;;
2772;SDS011;1394;47.044;15.744;2024-01-06T07:26:23;24.33;;;2.63;;
2772;SDS011;1394;47.044;15.744;2024-01-06T07:28:51;24.50;;;3.00;;
2772;SDS011;1394;47.044;15.744;2024-01-06T07:31:20;24.87;;;3.00;;
2772;SDS011;1394;47.044;15.744;2024-01-06T07:33:48;24.47;;;2.67;;
2772;SDS011;1394;47.044;15.744;2024-01-06T07:36:16;24.57;;;3.13;;
2772;SDS011;1394;47.044;15.744;2024-01-06T07:38:43;24.60;;;2.77;;
2772;SDS011;1394;47.044;15.744;2024-01-06T07:41:11;24.90;;;2.83;;
2772;SDS011;1394;47.044;15.744;2024-01-06T07:43:38;24.60;;;2.80;;
2772;SDS011;1394;47.044;15.744;2024-01-06T07:46:05;24.00;;;2.20;;
2772;SDS011;1394;47.044;15.744;2024-01-06T07:48:35;23.37;;;1.90;;
2772;SDS011;1394;47.044;15.744;2024-01-06T07:51:03;24.90;;;2.43;;
2772;SDS011;1394;47.044;15.744;2024-01-06T07:53:31;24.63;;;2.70;;
2772;SDS011;1394;47.044;15.744;2024-01-06T07:55:58;24.50;;;2.50;;
2772;SDS011;1394;47.044;15.744;2024-01-06T07:58:29;25.50;;;2.20;;
2772;SDS011;1394;47.044;15.744;2024-01-06T08:00:56;24.90;;;2.30;;
2772;SDS011;1394;47.044;15.744;2024-01-06T08:03:24;23.90;;;2.13;;
2772;SDS011;1394;47.044;15.744;2024-01-06T08:05:51;25.00;;;2.40;;
2772;SDS011;1394;47.044;15.744;2024-01-06T08:08:21;24.77;;;3.00;;
2772;SDS011;1394;47.044;15.744;2024-01-06T08:10:48;24.07;;;2.70;;
2772;SDS011;1394;47.044;15.744;2024-01-06T08:13:21;24.87;;;2.83;;
2772;SDS011;1394;47.044;15.744;2024-01-06T08:15:48;25.13;;;3.30;;
2772;SDS011;1394;47.044;15.744;2024-01-06T08:18:17;25.40;;;3.13;;
2772;SDS011;1394;47.044;15.744;2024-01-06T08:20:45;25.50;;;3.77;;
2772;SDS011;1394;47.044;15.744;2024-01-06T08:23:12;25.00;;;3.10;;
2772;SDS011;1394;47.044;15.744;2024-01-06T08:25:44;24.70;;;2.93;;
2772;SDS011;1394;47.044;15.744;2024-01-06T08:28:12;24.80;;;2.70;;
2772;SDS011;1394;47.044;15.744;2024-01-06T08:30:41;28.57;;;4.67;;
2772;SDS011;1394;47.044;15.744;2024-01-06T08:33:08;27.60;;;4.07;;
2772;SDS011;1394;47.044;15.744;2024-01-06T08:35:36;26.60;;;4.10;;
2772;SDS011;1394;47.044;15.744;2024-01-06T08:38:05;25.00;;;3.53;;
2772;SDS011;1394;47.044;15.744;2024-01-06T08:40:32;25.40;;;3.60;;
2772;SDS011;1394;47.044;15.744;2024-01-06T08:43:02;25.17;;;3.30;;
2772;SDS011;1394;47.044;15.744;2024-01-06T08:45:36;26.07;;;3.57;;
2772;SDS011;1394;47.044;15.744;2024-01-06T08:48:03;25.63;;;3.70;;
2772;SDS011;1394;47.044;15.744;2024-01-06T08:50:32;25.90;;;3.43;;
2772;SDS011;1394;47.044;15.744;2024-01-06T08:53:00;27.10;;;3.27;;
2772;SDS011;1394;47.044;15.744;2024-01-06T08:55:28;25.30;;;3.17;;
2772;SDS011;1394;47.044;15.744;2024-01-06T08:57:55;25.80;;;3.87;;
2772;SDS011;1394;47.044;15.744;2024-01-06T09:00:24;26.20;;;3.40;;
2772;SDS011;1394;47.044;15.744;2024-01-06T09:02:51;26.07;;;3.60;;
2772;SDS011;1394;47.044;15.744;2024-01-06T09:05:19;25.90;;;3.83;;
2772;SDS011;1394;47.044;15.744;2024-01-06T09:07:47;25.40;;;3.63;;
2772;SDS011;1394;47.044;15.744;2024-01-06T09:10:18;25.40;;;3.50;;
2772;SDS011;1394;47.044;15.744;2024-01-06T09:12:46;25.63;;;3.57;;
2772;SDS011;1394;47.044;15.744;2024-01-06T09:15:13;26.00;;;3.63;;
2772;SDS011;1394;47.044;15.744;2024-01-06T09:17:43;26.50;;;3.60;;
2772;SDS011;1394;47.044;15.744;2024-01-06T09:20:11;26.97;;;4.43;;
2772;SDS011;1394;47.044;15.744;2024-01-06T09:22:38;27.60;;;5.87;;
2772;SDS011;1394;47.044;15.744;2024-01-06T09:25:07;26.80;;;5.10;;
2772;SDS011;1394;47.044;15.744;2024-01-06T09:27:37;29.77;;;5.20;;
2772;SDS011;1394;47.044;15.744;2024-01-06T09:30:04;27.67;;;4.73;;
2772;SDS011;1394;47.044;15.744;2024-01-06T09:32:33;26.30;;;4.27;;
2772;SDS011;1394;47.044;15.744;2024-01-06T09:35:03;27.23;;;4.60;;
2772;SDS011;1394;47.044;15.744;2024-01-06T09:37:32;25.30;;;3.90;;
2772;SDS011;1394;47.044;15.744;2024-01-06T09:40:02;27.30;;;3.93;;
2772;SDS011;1394;47.044;15.744;2024-01-06T09:42:31;25.60;;;3.60;;
2772;SDS011;1394;47.044;15.744;2024-01-06T09:44:58;26.07;;;3.63;;
2772;SDS011;1394;47.044;15.744;2024-01-06T09:47:27;29.10;;;3.87;;
2772;SDS011;1394;47.044;15.744;2024-01-06T09:49:55;25.20;;;3.70;;
2772;SDS011;1394;47.044;15.744;2024-01-06T09:52:32;25.70;;;3.50;;
2772;SDS011;1394;47.044;15.744;2024-01-06T09:55:00;24.87;;;3.47;;
2772;SDS011;1394;47.044;15.744;2024-01-06T09:57:31;26.30;;;3.73;;
2772;SDS011;1394;47.044;15.744;2024-01-06T09:59:59;24.67;;;3.10;;
2772;SDS011;1394;47.044;15.744;2024-01-06T10:02:29;24.87;;;3.53;;
2772;SDS011;1394;47.044;15.744;2024-01-06T10:04:58;26.10;;;4.40;;
2772;SDS011;1394;47.044;15.744;2024-01-06T10:07:34;26.87;;;5.07;;
2772;SDS011;1394;47.044;15.744;2024-01-06T10:10:01;25.83;;;4.67;;
2772;SDS011;1394;47.044;15.744;2024-01-06T10:12:29;26.23;;;4.00;;
2772;SDS011;1394;47.044;15.744;2024-01-06T10:14:58;25.87;;;4.17;;
2772;SDS011;1394;47.044;15.744;2024-01-06T10:17:33;25.63;;;4.07;;
2772;SDS011;1394;47.044;15.744;2024-01-06T10:20:00;26.87;;;5.37;;
2772;SDS011;1394;47.044;15.744;2024-01-06T10:22:28;25.63;;;4.50;;
2772;SDS011;1394;47.044;15.744;2024-01-06T10:24:59;25.57;;;4.40;;
2772;SDS011;1394;47.044;15.744;2024-01-06T10:27:29;26.37;;;4.00;;
2772;SDS011;1394;47.044;15.744;2024-01-06T10:29:58;27.40;;;4.80;;
2772;SDS011;1394;47.044;15.744;2024-01-06T10:32:30;25.37;;;4.20;;
2772;SDS011;1394;47.044;15.744;2024-01-06T10:34:58;25.73;;;4.23;;
2772;SDS011;1394;47.044;15.744;2024-01-06T10:37:26;26.87;;;4.80;;
2772;SDS011;1394;47.044;15.744;2024-01-06T10:40:08;25.97;;;3.70;;
2772;SDS011;1394;47.044;15.744;2024-01-06T10:42:38;25.80;;;4.20;;
2772;SDS011;1394;47.044;15.744;2024-01-06T10:45:09;27.87;;;6.30;;
2772;SDS011;1394;47.044;15.744;2024-01-06T10:47:39;25.80;;;4.07;;
2772;SDS011;1394;47.044;15.744;2024-01-06T10:50:09;29.00;;;4.93;;
2772;SDS011;1394;47.044;15.744;2024-01-06T10:52:39;27.80;;;5.53;;
2772;SDS011;1394;47.044;15.744;2024-01-06T10:55:13;25.90;;;4.40;;
2772;SDS011;1394;47.044;15.744;2024-01-06T10:57:43;26.80;;;4.70;;
2772;SDS011;1394;47.044;15.744;2024-01-06T11:00:11;25.90;;;4.43;;
2772;SDS011;1394;47.044;15.744;2024-01-06T11:02:39;25.97;;;4.90;;
2772;SDS011;1394;47.044;15.744;2024-01-06T11:05:08;26.57;;;5.17;;
2772;SDS011;1394;47.044;15.744;2024-01-06T11:07:37;26.50;;;5.80;;
2772;SDS011;1394;47.044;15.744;2024-01-06T11:10:08;25.87;;;5.07;;
2772;SDS011;1394;47.044;15.744;2024-01-06T11:12:44;26.10;;;5.00;;
2772;SDS011;1394;47.044;15.744;2024-01-06T11:17:55;24.90;;;4.20;;
2772;SDS011;1394;47.044;15.744;2024-01-06T11:20:23;25.10;;;3.90;;
2772;SDS011;1394;47.044;15.744;2024-01-06T11:22:54;25.70;;;4.00;;
2772;SDS011;1394;47.044;15.744;2024-01-06T11:25:24;25.50;;;3.77;;
2772;SDS011;1394;47.044;15.744;2024-01-06T11:27:54;25.23;;;3.80;;
2772;SDS011;1394;47.044;15.744;2024-01-06T11:30:24;25.47;;;4.10;;
2772;SDS011;1394;47.044;15.744;2024-01-06T11:32:55;26.90;;;4.03;;
2772;SDS011;1394;47.044;15.744;2024-01-06T11:35:25;25.00;;;3.50;;
2772;SDS011;1394;47.044;15.744;2024-01-06T11:37:55;24.63;;;3.07;;
2772;SDS011;1394;47.044;15.744;2024-01-06T11:40:34;25.03;;;3.87;;
2772;SDS011;1394;47.044;15.744;2024-01-06T11:43:03;25.53;;;3.70;;
2772;SDS011;1394;47.044;15.744;2024-01-06T11:45:34;25.77;;;3.60;;
2772;SDS011;1394;47.044;15.744;2024-01-06T11:48:02;25.30;;;3.47;;
2772;SDS011;1394;47.044;15.744;2024-01-06T11:50:31;24.50;;;3.30;;
2772;SDS011;1394;47.044;15.744;2024-01-06T11:52:59;24.90;;;3.30;;
2772;SDS011;1394;47.044;15.744;2024-01-06T11:55:29;24.47;;;2.90;;
2772;SDS011;1394;47.044;15.744;2024-01-06T11:57:58;24.50;;;2.93;;
2772;SDS011;1394;47.044;15.744;2024-01-06T12:00:30;24.60;;;3.20;;
2772;SDS011;1394;47.044;15.744;2024-01-06T12:03:01;25.50;;;3.57;;
2772;SDS011;1394;47.044;15.744;2024-01-06T12:05:30;25.20;;;3.33;;
2772;SDS011;1394;47.044;15.744;2024-01-06T12:07:58;24.83;;;3.20;;
2772;SDS011;1394;47.044;15.744;2024-01-06T12:10:27;26.00;;;3.23;;
2772;SDS011;1394;47.044;15.744;2024-01-06T12:12:55;24.50;;;2.93;;
2772;SDS011;1394;47.044;15.744;2024-01-06T12:15:26;25.17;;;2.80;;
2772;SDS011;1394;47.044;15.744;2024-01-06T12:17:55;24.67;;;2.80;;
2772;SDS011;1394;47.044;15.744;2024-01-06T12:20:24;24.13;;;2.40;;
2772;SDS011;1394;47.044;15.744;2024-01-06T12:22:52;25.07;;;3.27;;
2772;SDS011;1394;47.044;15.744;2024-01-06T12:25:21;24.40;;;2.93;;
2772;SDS011;1394;47.044;15.744;2024-01-06T12:27:51;24.37;;;2.83;;
2772;SDS011;1394;47.044;15.744;2024-01-06T12:30:22;24.57;;;3.10;;
2772;SDS011;1394;47.044;15.744;2024-01-06T12:32:50;25.17;;;3.00;;
2772;SDS011;1394;47.044;15.744;2024-01-06T12:35:21;26.13;;;3.10;;
2772;SDS011;1394;47.044;15.744;2024-01-06T12:37:51;24.20;;;2.90;;
2772;SDS011;1394;47.044;15.744;2024-01-06T12:40:19;24.60;;;2.70;;
2772;SDS011;1394;47.044;15.744;2024-01-06T12:42:46;24.37;;;2.90;;
2772;SDS011;1394;47.044;15.744;2024-01-06T12:45:13;24.10;;;2.67;;
2772;SDS011;1394;47.044;15.744;2024-01-06T12:47:41;23.90;;;2.50;;
2772;SDS011;1394;47.044;15.744;2024-01-06T12:50:11;23.83;;;2.20;;
2772;SDS011;1394;47.044;15.744;2024-01-06T12:52:45;24.43;;;2.90;;
2772;SDS011;1394;47.044;15.744;2024-01-06T12:55:14;24.27;;;2.70;;
2772;SDS011;1394;47.044;15.744;2024-01-06T12:57:41;23.90;;;2.10;;
2772;SDS011;1394;47.044;15.744;2024-01-06T13:00:10;23.77;;;2.00;;
2772;SDS011;1394;47.044;15.744;2024-01-06T13:02:37;23.33;;;1.90;;
2772;SDS011;1394;47.044;15.744;2024-01-06T13:05:05;23.40;;;1.87;;
2772;SDS011;1394;47.044;15.744;2024-01-06T13:07:34;23.40;;;1.73;;
2772;SDS011;1394;47.044;15.744;2024-01-06T13:10:06;23.10;;;1.60;;
2772;SDS011;1394;47.044;15.744;2024-01-06T13:12:34;23.87;;;1.80;;
2772;SDS011;1394;47.044;15.744;2024-01-06T13:15:01;23.40;;;1.80;;
2772;SDS011;1394;47.044;15.744;2024-01-06T13:17:29;23.40;;;1.80;;
2772;SDS011;1394;47.044;15.744;2024-01-06T13:19:56;23.60;;;1.83;;
2772;SDS011;1394;47.044;15.744;2024-01-06T13:22:24;23.27;;;1.57;;
2772;SDS011;1394;47.044;15.744;2024-01-06T13:24:51;23.20;;;1.60;;
2772;SDS011;1394;47.044;15.744;2024-01-06T13:27:22;23.10;;;1.40;;
2772;SDS011;1394;47.044;15.744;2024-01-06T13:29:52;23.50;;;1.80;;
2772;SDS011;1394;47.044;15.744;2024-01-06T13:32:22;23.10;;;1.47;;
2772;SDS011;1394;47.044;15.744;2024-01-06T13:34:52;23.10;;;1.50;;
2772;SDS011;1394;47.044;15.744;2024-01-06T13:37:29;23.23;;;1.47;;
2772;SDS011;1394;47.044;15.744;2024-01-06T13:39:56;24.00;;;2.83;;
2772;SDS011;1394;47.044;15.744;2024-01-06T13:42:28;23.97;;;2.80;;
2772;SDS011;1394;47.044;15.744;2024-01-06T13:44:55;23.03;;;1.43;;
2772;SDS011;1394;47.044;15.744;2024-01-06T13:47:25;24.43;;;1.63;;
2772;SDS011;1394;47.044;15.744;2024-01-06T13:49:52;23.70;;;2.20;;
2772;SDS011;1394;47.044;15.744;2024-01-06T13:52:21;28.43;;;7.03;;
2772;SDS011;1394;47.044;15.744;2024-01-06T13:54:51;29.97;;;8.70;;
2772;SDS011;1394;47.044;15.744;2024-01-06T13:57:21;23.87;;;2.10;;
2772;SDS011;1394;47.044;15.744;2024-01-06T13:59:49;24.73;;;3.87;;
2772;SDS011;1394;47.044;15.744;2024-01-06T14:02:18;23.00;;;1.73;;
2772;SDS011;1394;47.044;15.744;2024-01-06T14:04:46;23.60;;;2.17;;
2772;SDS011;1394;47.044;15.744;2024-01-06T14:07:14;24.20;;;2.60;;
2772;SDS011;1394;47.044;15.744;2024-01-06T14:09:45;25.20;;;4.30;;
2772;SDS011;1394;47.044;15.744;2024-01-06T14:12:12;23.90;;;2.50;;
2772;SDS011;1394;47.044;15.744;2024-01-06T14:14:41;23.97;;;2.07;;
2772;SDS011;1394;47.044;15.744;2024-01-06T14:17:12;23.27;;;1.50;;
2772;SDS011;1394;47.044;15.744;2024-01-06T14:19:42;23.30;;;1.53;;
2772;SDS011;1394;47.044;15.744;2024-01-06T14:22:11;23.33;;;1.53;;
2772;SDS011;1394;47.044;15.744;2024-01-06T14:24:40;23.00;;;1.30;;
2772;SDS011;1394;47.044;15.744;2024-01-06T14:27:07;23.07;;;1.40;;
2772;SDS011;1394;47.044;15.744;2024-01-06T14:29:35;23.13;;;1.30;;
2772;SDS011;1394;47.044;15.744;2024-01-06T14:32:05;23.00;;;1.33;;
2772;SDS011;1394;47.044;15.744;2024-01-06T14:34:36;22.90;;;1.20;;
2772;SDS011;1394;47.044;15.744;2024-01-06T14:37:05;23.30;;;1.53;;
2772;SDS011;1394;47.044;15.744;2024-01-06T14:39:33;23.10;;;1.50;;
2772;SDS011;1394;47.044;15.744;2024-01-06T14:42:02;23.43;;;1.50;;
2772;SDS011;1394;47.044;15.744;2024-01-06T14:44:32;22.70;;;1.10;;
2772;SDS011;1394;47.044;15.744;2024-01-06T14:47:01;23.17;;;1.27;;
2772;SDS011;1394;47.044;15.744;2024-01-06T14:49:28;23.17;;;1.27;;
2772;SDS011;1394;47.044;15.744;2024-01-06T14:51:57;22.90;;;1.10;;
2772;SDS011;1394;47.044;15.744;2024-01-06T14:54:25;23.40;;;1.50;;
2772;SDS011;1394;47.044;15.744;2024-01-06T14:56:56;23.60;;;1.70;;
2772;SDS011;1394;47.044;15.744;2024-01-06T14:59:27;23.20;;;1.70;;